createdAt,value
2018-12-23T00:02:22.717Z,10.90
2018-12-23T00:04:51.359Z,11.10
2018-12-23T00:07:19.649Z,11.00
2018-12-23T00:09:48.135Z,11.20
2018-12-23T00:12:16.501Z,11.00
2018-12-23T00:14:44.766Z,11.20
2018-12-23T00:17:13.105Z,11.20
2018-12-23T00:19:41.633Z,11.30
2018-12-23T00:22:10.198Z,11.10
2018-12-23T00:24:38.637Z,11.00
2018-12-23T00:27:07.162Z,11.10
2018-12-23T00:29:35.653Z,10.90
2018-12-23T00:32:04.349Z,11.00
2018-12-23T00:34:32.642Z,10.90
2018-12-23T00:37:01.228Z,11.10
2018-12-23T00:39:29.657Z,11.00
2018-12-23T00:41:58.454Z,11.10
2018-12-23T00:44:26.847Z,10.90
2018-12-23T00:46:55.244Z,11.00
2018-12-23T00:49:23.924Z,10.80
2018-12-23T00:51:52.376Z,11.00
2018-12-23T00:54:21.178Z,11.10
2018-12-23T00:56:50.196Z,10.80
2018-12-23T00:59:20.225Z,11.30
2018-12-23T01:01:50.072Z,11.00
2018-12-23T01:04:21.583Z,10.90
2018-12-23T01:06:50.104Z,10.70
2018-12-23T01:09:18.805Z,10.60
2018-12-23T01:11:47.314Z,10.40
2018-12-23T01:14:16.767Z,10.50
2018-12-23T01:16:46.448Z,10.60
2018-12-23T01:19:16.844Z,10.90
2018-12-23T01:21:46.528Z,10.90
2018-12-23T01:24:19.284Z,10.60
2018-12-23T01:26:54.039Z,10.60
2018-12-23T01:29:22.564Z,10.70
2018-12-23T01:31:52.152Z,10.40
2018-12-23T01:34:24.254Z,10.40
2018-12-23T01:36:52.672Z,10.40
2018-12-23T01:39:21.154Z,10.40
2018-12-23T01:41:49.478Z,10.40
2018-12-23T01:44:20.017Z,10.30
2018-12-23T01:46:49.438Z,10.40
2018-12-23T01:49:19.001Z,10.10
2018-12-23T01:51:48.812Z,10.10
2018-12-23T01:54:17.775Z,10.00
2018-12-23T01:56:46.385Z,10.10
2018-12-23T01:59:14.701Z,10.20
2018-12-23T02:01:44.062Z,10.10
2018-12-23T02:04:12.583Z,10.00
2018-12-23T02:06:43.755Z,10.10
2018-12-23T02:15:24.717Z,10.20
2018-12-23T02:17:53.295Z,10.20
2018-12-23T02:20:36.952Z,10.30
2018-12-23T02:23:05.401Z,10.60
2018-12-23T02:25:35.859Z,10.50
2018-12-23T02:28:32.433Z,10.50
2018-12-23T02:31:00.727Z,10.40
2018-12-23T02:33:29.049Z,10.50
2018-12-23T02:35:57.877Z,10.40
2018-12-23T02:38:28.073Z,10.20
2018-12-23T02:40:57.921Z,10.10
2018-12-23T02:43:26.813Z,10.10
2018-12-23T02:45:55.666Z,10.30
2018-12-23T02:48:25.884Z,10.10
2018-12-23T02:50:55.349Z,10.00
2018-12-23T02:53:24.121Z,10.10
2018-12-23T02:55:52.534Z,10.10
2018-12-23T02:58:20.894Z,10.10
2018-12-23T03:00:49.312Z,10.10
2018-12-23T03:03:17.702Z,10.10
2018-12-23T03:05:46.229Z,10.40
2018-12-23T03:08:15.364Z,10.20
2018-12-23T03:10:44.277Z,10.40
2018-12-23T03:13:13.951Z,10.40
2018-12-23T03:15:42.345Z,10.50
2018-12-23T03:18:11.868Z,10.50
2018-12-23T03:20:40.312Z,10.30
2018-12-23T03:23:08.654Z,10.40
2018-12-23T03:25:37.232Z,10.40
2018-12-23T03:28:08.187Z,10.50
2018-12-23T03:30:37.619Z,10.40
2018-12-23T03:33:08.714Z,10.50
2018-12-23T03:35:38.243Z,10.50
2018-12-23T03:38:07.965Z,10.40
2018-12-23T03:40:39.239Z,10.50
2018-12-23T03:43:09.893Z,10.40
2018-12-23T03:45:39.988Z,10.30
2018-12-23T03:48:09.622Z,10.10
2018-12-23T03:50:38.665Z,10.50
2018-12-23T03:53:08.668Z,10.60
2018-12-23T03:55:37.952Z,10.30
2018-12-23T03:58:07.791Z,10.40
2018-12-23T04:00:38.628Z,10.40
2018-12-23T04:03:08.031Z,10.40
2018-12-23T04:05:38.359Z,10.40
2018-12-23T04:08:07.704Z,10.50
2018-12-23T04:10:36.965Z,10.30
2018-12-23T04:13:07.570Z,10.20
2018-12-23T04:15:36.513Z,10.30
2018-12-23T04:18:05.560Z,10.20
2018-12-23T04:20:34.377Z,10.20
2018-12-23T04:23:04.802Z,10.30
2018-12-23T04:25:33.805Z,10.40
2018-12-23T04:28:03.024Z,10.30
2018-12-23T04:30:31.556Z,10.30
2018-12-23T04:32:59.948Z,10.60
2018-12-23T04:35:28.267Z,10.60
2018-12-23T04:37:56.530Z,10.90
2018-12-23T04:40:24.845Z,11.00
2018-12-23T04:42:54.522Z,10.70
2018-12-23T04:45:23.054Z,10.50
2018-12-23T04:47:52.114Z,10.70
2018-12-23T04:50:20.894Z,10.90
2018-12-23T04:52:49.204Z,10.90
2018-12-23T04:55:17.484Z,10.60
2018-12-23T04:57:46.111Z,10.50
2018-12-23T05:00:14.790Z,10.60
2018-12-23T05:02:43.216Z,10.60
2018-12-23T05:05:11.506Z,10.30
2018-12-23T05:07:43.362Z,10.20
2018-12-23T05:10:11.838Z,10.40
2018-12-23T05:12:41.314Z,10.50
2018-12-23T05:15:09.667Z,10.50
2018-12-23T05:17:38.057Z,10.30
2018-12-23T05:20:06.391Z,10.30
2018-12-23T05:22:37.195Z,10.20
2018-12-23T05:25:05.688Z,10.10
2018-12-23T05:27:33.968Z,10.20
2018-12-23T05:30:02.225Z,10.10
2018-12-23T05:32:30.489Z,10.10
2018-12-23T05:34:58.783Z,10.10
2018-12-23T05:37:27.106Z,10.00
2018-12-23T05:39:55.378Z,10.10
2018-12-23T05:42:23.668Z,10.00
2018-12-23T05:44:52.028Z,10.10
2018-12-23T05:47:20.305Z,10.20
2018-12-23T05:49:48.568Z,10.10
2018-12-23T05:52:16.825Z,10.20
2018-12-23T05:54:45.107Z,10.20
2018-12-23T05:57:13.359Z,10.30
2018-12-23T05:59:41.640Z,10.40
2018-12-23T06:02:11.418Z,10.30
2018-12-23T06:04:39.673Z,10.30
2018-12-23T06:07:07.981Z,10.30
2018-12-23T06:09:36.307Z,10.30
2018-12-23T06:12:04.549Z,10.30
2018-12-23T06:14:34.629Z,10.30
2018-12-23T06:17:02.908Z,10.30
2018-12-23T06:19:31.252Z,10.30
2018-12-23T06:21:59.522Z,10.20
2018-12-23T06:24:27.871Z,10.30
2018-12-23T06:26:56.147Z,10.20
2018-12-23T06:29:24.531Z,10.20
2018-12-23T06:31:52.915Z,10.20
2018-12-23T06:34:21.130Z,10.20
2018-12-23T06:36:49.385Z,10.10
2018-12-23T06:39:17.659Z,10.10
2018-12-23T06:41:46.063Z,10.00
2018-12-23T06:44:14.309Z,10.10
2018-12-23T06:46:42.564Z,10.10
2018-12-23T06:49:10.827Z,10.10
2018-12-23T06:51:39.070Z,10.00
2018-12-23T06:54:07.331Z,10.00
2018-12-23T06:56:35.585Z,9.90
2018-12-23T06:59:04.624Z,10.00
2018-12-23T07:01:32.861Z,9.90
2018-12-23T07:04:01.093Z,9.90
2018-12-23T07:06:29.449Z,10.00
2018-12-23T07:08:58.456Z,10.00
2018-12-23T07:11:26.763Z,9.90
2018-12-23T07:13:55.086Z,9.90
2018-12-23T07:16:23.390Z,10.00
2018-12-23T07:18:51.787Z,10.00
2018-12-23T07:21:20.099Z,9.90
2018-12-23T07:23:48.449Z,9.80
2018-12-23T07:26:16.739Z,9.80
2018-12-23T07:28:45.018Z,9.80
2018-12-23T07:31:13.292Z,9.90
2018-12-23T07:33:41.551Z,9.80
2018-12-23T07:36:09.915Z,9.90
2018-12-23T07:38:38.925Z,9.90
2018-12-23T07:41:07.226Z,9.90
2018-12-23T07:43:37.670Z,9.90
2018-12-23T07:46:06.134Z,10.00
2018-12-23T07:48:34.365Z,10.00
2018-12-23T07:51:02.639Z,9.90
2018-12-23T07:53:31.186Z,9.80
2018-12-23T07:55:59.581Z,9.80
2018-12-23T07:58:27.875Z,9.90
2018-12-23T08:00:56.279Z,9.90
2018-12-23T08:03:24.616Z,10.00
2018-12-23T08:05:52.893Z,9.90
2018-12-23T08:08:21.205Z,10.00
2018-12-23T08:10:49.470Z,10.00
2018-12-23T08:13:17.741Z,10.00
2018-12-23T08:15:46.054Z,10.00
2018-12-23T08:18:37.570Z,10.00
2018-12-23T08:21:22.164Z,10.10
2018-12-23T08:33:09.872Z,10.10
2018-12-23T08:38:42.364Z,10.20
2018-12-23T08:41:29.272Z,10.30
2018-12-23T09:05:32.672Z,10.70
2018-12-23T09:08:54.967Z,10.60
2018-12-23T09:20:59.031Z,10.40
2018-12-23T09:23:35.456Z,10.30
2018-12-23T09:26:13.410Z,10.50
2018-12-23T09:28:58.749Z,10.60
2018-12-23T09:31:40.846Z,10.60
2018-12-23T09:34:21.126Z,10.80
2018-12-23T09:55:44.235Z,11.10
2018-12-23T10:04:00.762Z,11.40
2018-12-23T10:06:30.953Z,11.30
2018-12-23T10:12:05.366Z,11.30
2018-12-23T15:33:50.151Z,10.30
2018-12-23T15:36:42.669Z,10.20
2018-12-23T15:44:05.243Z,10.10
2018-12-23T15:46:42.802Z,10.00
2018-12-23T15:49:17.190Z,10.00
2018-12-23T15:51:50.590Z,10.00
2018-12-23T15:54:22.779Z,10.00
2018-12-23T15:57:08.141Z,9.90
2018-12-23T15:59:45.455Z,10.00
2018-12-23T16:02:41.162Z,10.20
2018-12-23T16:05:32.047Z,10.20
2018-12-23T16:08:06.028Z,10.10
2018-12-23T16:10:38.400Z,10.10
2018-12-23T16:13:08.777Z,10.00
2018-12-23T16:15:44.956Z,10.10
2018-12-23T16:18:14.486Z,10.10
2018-12-23T16:20:44.023Z,10.00
2018-12-23T16:23:29.010Z,10.10
2018-12-23T16:25:58.594Z,10.10
2018-12-23T16:28:36.011Z,10.10
2018-12-23T16:31:19.097Z,10.00
2018-12-23T16:34:32.738Z,10.00
2018-12-23T16:37:06.479Z,9.90
2018-12-23T16:39:59.591Z,10.00
2018-12-23T16:42:27.143Z,10.00
2018-12-23T16:44:56.889Z,10.20
2018-12-23T16:47:25.970Z,10.20
2018-12-23T16:49:58.747Z,10.10
2018-12-23T16:52:27.962Z,10.20
2018-12-23T16:54:57.549Z,10.00
2018-12-23T16:57:31.387Z,9.90
2018-12-23T17:00:00.734Z,9.80
2018-12-23T17:02:39.909Z,9.50
2018-12-23T17:05:12.151Z,9.50
2018-12-23T17:07:45.963Z,9.60
2018-12-23T17:10:21.761Z,9.80
2018-12-23T17:12:50.856Z,9.80
2018-12-23T17:15:19.908Z,9.80
2018-12-23T17:17:48.965Z,9.90
2018-12-23T17:20:18.670Z,9.90
2018-12-23T17:22:47.725Z,9.90
2018-12-23T17:25:16.814Z,9.90
2018-12-23T17:27:45.903Z,10.00
2018-12-23T17:30:15.148Z,10.00
2018-12-23T17:32:45.131Z,9.90
2018-12-23T17:35:14.588Z,9.90
2018-12-23T17:37:48.802Z,9.90
2018-12-23T17:40:18.018Z,9.70
2018-12-23T17:42:49.069Z,9.80
2018-12-23T17:45:39.588Z,9.70
2018-12-23T17:48:09.002Z,10.10
2018-12-23T17:50:38.038Z,10.20
2018-12-23T17:53:07.069Z,10.10
2018-12-23T17:55:36.400Z,10.20
2018-12-23T17:58:05.447Z,10.10
2018-12-23T18:00:35.246Z,10.10
2018-12-23T18:03:04.432Z,10.10
2018-12-23T18:05:33.709Z,10.10
2018-12-23T18:08:02.743Z,10.20
2018-12-23T18:10:32.248Z,10.30
2018-12-23T18:13:02.231Z,10.30
2018-12-23T18:15:33.606Z,10.30
2018-12-23T18:18:03.760Z,10.30
2018-12-23T18:20:32.780Z,10.40
2018-12-23T18:23:01.750Z,10.40
2018-12-23T18:25:30.788Z,10.20
2018-12-23T18:27:59.818Z,10.10
2018-12-23T18:30:29.115Z,10.10
2018-12-23T18:32:58.101Z,10.20
2018-12-23T18:35:27.380Z,10.40
2018-12-23T18:37:56.221Z,10.50
2018-12-23T18:40:33.161Z,10.30
2018-12-23T18:42:55.941Z,10.20
2018-12-23T18:45:24.888Z,10.30
2018-12-23T18:47:53.893Z,10.30
2018-12-23T18:50:22.914Z,10.50
2018-12-23T18:52:52.188Z,10.30
2018-12-23T18:55:21.206Z,10.40
2018-12-23T18:57:50.529Z,10.30
2018-12-23T19:00:19.719Z,10.30
2018-12-23T19:02:51.951Z,10.20
2018-12-23T19:05:21.012Z,10.50
2018-12-23T19:07:54.396Z,10.40
2018-12-23T19:11:16.853Z,10.40
2018-12-23T19:14:34.907Z,10.40
2018-12-23T19:17:40.165Z,10.30
2018-12-23T19:20:55.633Z,10.70
2018-12-23T19:23:32.006Z,10.60
2018-12-23T19:26:32.685Z,10.60
2018-12-23T19:29:40.060Z,10.90
2018-12-23T19:32:36.047Z,10.80
2018-12-23T19:35:41.130Z,10.90
2018-12-23T19:39:18.634Z,11.00
2018-12-23T19:42:23.397Z,11.40
2018-12-23T19:45:33.228Z,11.40
2018-12-23T19:48:42.145Z,11.70
2018-12-23T19:51:35.432Z,11.70
2018-12-23T19:54:43.610Z,11.40
2018-12-23T19:58:02.109Z,11.50
2018-12-23T20:00:40.746Z,11.70
2018-12-23T20:03:45.857Z,11.80
2018-12-23T20:06:39.349Z,11.90
2018-12-23T20:09:40.407Z,11.80
2018-12-23T20:12:56.487Z,11.70
2018-12-23T20:16:03.418Z,12.00
2018-12-23T20:19:19.285Z,12.00
2018-12-23T20:22:31.569Z,12.30
2018-12-23T20:25:41.216Z,12.40
2018-12-23T20:28:48.179Z,12.20
2018-12-23T20:31:46.878Z,12.20
2018-12-23T20:35:15.445Z,12.20
2018-12-23T20:38:19.848Z,11.80
2018-12-23T20:41:38.146Z,12.00
2018-12-23T20:44:59.377Z,12.20
2018-12-23T20:48:05.840Z,12.30
2018-12-23T20:51:13.007Z,12.10
2018-12-23T20:54:27.809Z,11.40
2018-12-23T20:57:33.048Z,11.20
2018-12-23T21:00:49.779Z,10.90
2018-12-23T21:04:01.360Z,10.80
2018-12-23T21:06:57.311Z,10.90
2018-12-23T21:09:58.857Z,10.70
2018-12-23T21:13:10.463Z,10.70
2018-12-23T21:16:14.555Z,10.50
2018-12-23T21:19:20.785Z,10.40
2018-12-23T21:22:17.071Z,10.30
2018-12-23T21:28:57.547Z,9.90
2018-12-23T21:32:14.883Z,10.20
2018-12-23T21:38:01.321Z,9.90
2018-12-23T21:41:14.792Z,9.60
2018-12-23T21:44:12.572Z,9.40
2018-12-23T21:47:28.706Z,9.40
2018-12-23T21:50:24.881Z,9.70
2018-12-23T21:53:29.983Z,9.70
2018-12-23T21:56:39.449Z,9.80
2018-12-23T21:59:46.783Z,9.90
2018-12-23T22:03:08.249Z,9.50
2018-12-23T22:06:09.911Z,9.20
2018-12-23T22:09:18.584Z,9.00
2018-12-23T22:12:44.411Z,9.00
2018-12-23T22:15:14.166Z,8.70
2018-12-23T22:17:44.450Z,8.80
2018-12-23T22:20:13.902Z,8.50
2018-12-23T22:22:43.193Z,8.60
2018-12-23T22:25:14.364Z,8.50
2018-12-23T22:27:43.509Z,8.40
2018-12-23T22:30:13.709Z,8.30
2018-12-23T22:32:43.228Z,8.20
2018-12-23T22:35:12.532Z,8.00
2018-12-23T22:37:43.406Z,7.90
2018-12-23T22:40:12.879Z,8.10
2018-12-23T22:42:41.955Z,8.00
2018-12-23T22:45:11.886Z,8.10
2018-12-23T22:47:40.969Z,8.40
2018-12-23T22:50:10.435Z,8.60
2018-12-23T22:52:39.621Z,8.70
2018-12-23T22:55:09.895Z,8.90
2018-12-23T22:57:39.025Z,8.70
2018-12-23T23:00:08.464Z,8.50
2018-12-23T23:02:37.711Z,8.40
2018-12-23T23:05:06.879Z,8.50
2018-12-23T23:07:36.004Z,8.70
2018-12-23T23:10:06.548Z,8.90
2018-12-23T23:12:36.208Z,8.90
2018-12-23T23:15:06.047Z,8.60
2018-12-23T23:17:42.477Z,8.70
2018-12-23T23:20:17.568Z,8.50
2018-12-23T23:22:46.755Z,8.30
2018-12-23T23:25:22.383Z,8.30
2018-12-23T23:27:59.708Z,8.10
2018-12-23T23:30:31.108Z,8.00
2018-12-23T23:33:08.938Z,8.10
2018-12-23T23:35:41.979Z,8.10
2018-12-23T23:38:11.035Z,8.00
2018-12-23T23:40:41.619Z,7.80
2018-12-23T23:43:11.691Z,7.90
2018-12-23T23:45:41.233Z,7.80
2018-12-23T23:48:11.011Z,7.70
2018-12-23T23:50:40.426Z,7.90
2018-12-23T23:53:09.861Z,7.80
2018-12-23T23:55:39.330Z,7.70
2018-12-23T23:58:08.944Z,7.70
